Time;durP1;ratioP1;P1;durP2;ratioP2;P2;SDS_P1;SDS_P2;PMS_P1;PMS_P2;Temp;Humidity;BMP_temperature;BMP_pressure;BME280_temperature;BME280_humidity;BME280_pressure;Samples;Min_cycle;Max_cycle;Signal;HPM_P1;HPM_P2
2023/07/09 00:02:14;;;;;;;15.75;8.35;;;;;;;19.41;67.94;96685.44;5060642;28;20044;-73
2023/07/09 00:04:41;;;;;;;12.85;7.65;;;;;;;19.49;67.58;96678.88;5051264;28;20045;-73
2023/07/09 00:07:16;;;;;;;12.57;7.18;;;;;;;19.52;67.27;96689.22;5051452;28;20037;-73
2023/07/09 00:09:42;;;;;;;12.85;7.00;;;;;;;19.59;67.14;96684.97;5052043;28;20060;-73
2023/07/09 00:12:14;;;;;;;11.18;6.55;;;;;;;19.68;68.31;96688.28;5052590;28;20049;-73
2023/07/09 00:14:40;;;;;;;14.02;7.38;;;;;;;19.73;67.92;96693.50;5074674;28;20044;-73
2023/07/09 00:17:10;;;;;;;11.30;7.38;;;;;;;19.73;67.29;96693.50;5071706;28;20045;-73
2023/07/09 00:19:39;;;;;;;12.02;7.13;;;;;;;19.70;67.08;96689.53;5067346;28;20053;-73
2023/07/09 00:22:16;;;;;;;10.73;7.25;;;;;;;19.68;67.14;96686.34;5052321;28;20416;-73
2023/07/09 00:24:44;;;;;;;10.93;6.93;;;;;;;19.67;67.34;96690.25;5051887;28;20044;-73
2023/07/09 00:27:10;;;;;;;11.50;7.28;;;;;;;19.74;68.69;96689.59;5059738;28;20045;-73
2023/07/09 00:29:37;;;;;;;11.70;7.50;;;;;;;19.71;68.19;96690.34;5071083;28;20060;-72
2023/07/09 00:32:04;;;;;;;10.73;6.88;;;;;;;19.55;67.80;96693.97;5070738;28;20385;-72
2023/07/09 00:34:30;;;;;;;15.07;7.97;;;;;;;19.26;69.43;96692.69;5070585;28;20063;-73
2023/07/09 00:36:58;;;;;;;13.32;7.60;;;;;;;19.21;69.44;96693.00;5070863;28;20075;-72
2023/07/09 00:39:26;;;;;;;11.60;7.28;;;;;;;19.31;69.47;96688.81;5070012;28;20045;-73
2023/07/09 00:41:53;;;;;;;11.70;7.07;;;;;;;19.34;69.41;96690.84;5070044;28;20662;-74
2023/07/09 00:44:33;;;;;;;14.85;7.70;;;;;;;19.35;69.38;96694.41;5069617;28;20075;-72
2023/07/09 00:47:41;;;;;;;11.55;6.75;;;;;;;19.36;69.43;96696.00;5050187;28;20071;-74
2023/07/09 00:50:17;;;;;;;15.52;8.25;;;;;;;19.16;69.58;96701.56;5004683;28;20421;-72
2023/07/09 00:52:53;;;;;;;11.45;6.68;;;;;;;19.32;70.65;96695.94;5008089;28;20141;-72
2023/07/09 00:55:23;;;;;;;11.38;7.18;;;;;;;19.39;70.41;96701.59;5044672;28;20132;-74
2023/07/09 00:57:56;;;;;;;12.38;7.63;;;;;;;19.25;69.17;96698.56;5070223;28;20049;-72
2023/07/09 01:00:29;;;;;;;12.88;7.35;;;;;;;19.04;69.72;96702.50;5069846;28;20048;-72
2023/07/09 01:02:58;;;;;;;16.23;8.30;;;;;;;18.89;70.33;96714.41;5062105;28;20049;-73
2023/07/09 01:05:25;;;;;;;13.38;8.60;;;;;;;18.86;70.75;96712.41;5060863;28;20577;-72
2023/07/09 01:07:53;;;;;;;13.15;7.95;;;;;;;18.84;70.69;96713.91;5062762;28;20067;-72
2023/07/09 01:10:20;;;;;;;13.40;8.15;;;;;;;18.59;72.42;96705.09;5056575;28;20037;-72
2023/07/09 01:12:49;;;;;;;14.98;8.50;;;;;;;18.66;71.91;96708.00;5063831;28;20052;-73
2023/07/09 01:15:16;;;;;;;13.60;8.10;;;;;;;18.64;71.83;96713.88;5058809;28;20041;-72
2023/07/09 01:17:44;;;;;;;12.52;7.75;;;;;;;18.80;71.35;96713.84;5055562;28;20071;-72
2023/07/09 01:20:20;;;;;;;17.17;8.70;;;;;;;18.91;72.14;96719.59;5069216;28;20397;-72
2023/07/09 01:22:50;;;;;;;11.75;8.00;;;;;;;18.96;71.28;96709.06;5055157;28;20049;-73
2023/07/09 01:25:17;;;;;;;11.23;7.07;;;;;;;19.06;71.22;96704.13;5050940;28;20153;-72
2023/07/09 01:27:47;;;;;;;13.95;7.75;;;;;;;19.13;70.47;96715.28;5054942;28;20507;-72
2023/07/09 01:30:18;;;;;;;13.10;7.38;;;;;;;19.14;70.47;96709.41;5049130;28;20047;-72
2023/07/09 01:32:45;;;;;;;11.15;6.70;;;;;;;19.16;70.38;96720.06;5049613;28;20088;-72
2023/07/09 01:35:14;;;;;;;13.65;8.18;;;;;;;19.17;70.43;96724.44;5066930;28;20045;-72
2023/07/09 01:37:42;;;;;;;12.32;7.90;;;;;;;19.16;70.64;96720.06;5055603;28;20052;-72
2023/07/09 01:40:13;;;;;;;12.90;7.68;;;;;;;19.13;70.70;96721.59;5066488;28;20052;-73
2023/07/09 01:42:40;;;;;;;12.90;7.85;;;;;;;19.11;70.95;96718.44;5069379;28;20081;-72
2023/07/09 01:45:10;;;;;;;13.13;7.20;;;;;;;19.08;70.63;96724.66;5062787;28;20678;-73
2023/07/09 01:47:37;;;;;;;10.65;6.85;;;;;;;19.04;70.75;96713.53;5049447;28;20508;-74
2023/07/09 01:50:03;;;;;;;10.70;6.88;;;;;;;19.02;70.92;96717.84;5049101;28;20499;-72
2023/07/09 01:52:33;;;;;;;11.65;7.20;;;;;;;19.01;70.84;96719.81;5049378;28;20101;-72
2023/07/09 01:55:00;;;;;;;11.40;7.10;;;;;;;18.96;70.79;96722.06;5049508;28;20045;-73
2023/07/09 01:57:33;;;;;;;11.40;7.18;;;;;;;18.94;71.26;96725.16;5087970;28;20044;-73
2023/07/09 02:00:01;;;;;;;11.55;7.50;;;;;;;18.91;71.32;96725.91;5089525;28;20491;-73
2023/07/09 02:02:28;;;;;;;11.15;7.38;;;;;;;18.88;72.00;96729.38;5086377;28;20058;-73
2023/07/09 02:04:56;;;;;;;12.57;6.97;;;;;;;18.86;72.56;96726.19;5062054;28;20045;-73
2023/07/09 02:07:24;;;;;;;11.82;7.75;;;;;;;18.86;72.90;96728.16;5051737;28;20051;-73
2023/07/09 02:09:51;;;;;;;11.00;6.60;;;;;;;18.89;73.58;96730.97;5069372;28;20051;-72
2023/07/09 02:12:19;;;;;;;11.27;6.45;;;;;;;18.88;73.77;96743.19;5068681;28;20045;-73
2023/07/09 02:14:47;;;;;;;10.95;6.85;;;;;;;18.86;73.88;96740.00;5080419;28;20040;-73
2023/07/09 02:17:15;;;;;;;12.75;7.53;;;;;;;18.55;72.88;96731.81;5066634;28;20048;-73
2023/07/09 02:19:41;;;;;;;14.70;7.72;;;;;;;18.21;74.82;96737.72;5049293;28;20037;-73
2023/07/09 02:22:09;;;;;;;14.35;7.32;;;;;;;18.34;74.39;96737.63;5057674;28;20044;-73
2023/07/09 02:24:36;;;;;;;12.10;7.72;;;;;;;18.19;75.05;96736.50;5069113;28;20051;-73
2023/07/09 02:27:05;;;;;;;11.40;7.82;;;;;;;18.20;75.25;96741.66;5068897;28;20049;-73
2023/07/09 02:29:33;;;;;;;11.00;7.05;;;;;;;18.28;74.74;96739.06;5068933;28;20056;-73
2023/07/09 02:32:02;;;;;;;12.40;7.55;;;;;;;18.29;74.83;96730.44;5068788;28;20127;-72
2023/07/09 02:34:30;;;;;;;12.48;7.75;;;;;;;18.36;75.06;96738.06;5083573;28;20055;-73
2023/07/09 02:36:58;;;;;;;10.85;6.70;;;;;;;18.41;75.69;96735.03;5069176;28;20049;-73
2023/07/09 02:39:26;;;;;;;12.90;7.82;;;;;;;18.37;75.80;96745.97;5070499;28;20532;-74
2023/07/09 02:41:52;;;;;;;15.98;6.95;;;;;;;18.27;75.06;96741.03;5072468;28;20055;-73
2023/07/09 02:44:19;;;;;;;15.90;7.90;;;;;;;18.02;75.89;96742.41;5079503;28;20051;-73
2023/07/09 02:46:46;;;;;;;11.80;7.13;;;;;;;17.94;76.49;96744.16;5092778;28;20495;-73
2023/07/09 02:49:14;;;;;;;13.57;7.82;;;;;;;17.94;76.61;96739.44;5065138;28;20040;-73
2023/07/09 02:51:41;;;;;;;12.75;7.35;;;;;;;18.02;76.17;96740.44;5052474;28;20045;-73
2023/07/09 02:54:08;;;;;;;12.73;7.38;;;;;;;18.14;75.82;96742.28;5052102;28;20049;-72
2023/07/09 02:56:35;;;;;;;15.07;7.38;;;;;;;18.09;75.78;96745.31;5052436;28;20496;-73
2023/07/09 02:59:01;;;;;;;11.63;7.03;;;;;;;18.19;75.20;96750.28;5052294;28;20060;-74
2023/07/09 03:01:28;;;;;;;10.40;6.40;;;;;;;18.23;75.17;96756.69;5063280;28;20045;-73
2023/07/09 03:03:56;;;;;;;11.65;7.03;;;;;;;18.25;75.27;96755.16;5052314;28;20045;-72
2023/07/09 03:06:25;;;;;;;10.30;6.93;;;;;;;18.25;75.21;96754.34;5051968;28;20556;-73
2023/07/09 03:08:52;;;;;;;12.70;7.70;;;;;;;18.10;75.46;96755.97;5052272;28;20065;-73
2023/07/09 03:11:20;;;;;;;14.93;9.13;;;;;;;17.94;75.86;96750.47;5051847;28;20075;-73
2023/07/09 03:13:46;;;;;;;14.70;7.38;;;;;;;18.03;75.77;96753.06;5058605;28;20040;-73
2023/07/09 03:16:13;;;;;;;9.65;6.90;;;;;;;18.06;76.04;96749.56;5081338;28;20037;-73
2023/07/09 03:18:40;;;;;;;10.95;6.57;;;;;;;18.16;76.79;96754.53;5056940;28;20055;-73
2023/07/09 03:21:06;;;;;;;11.45;7.22;;;;;;;18.10;76.37;96757.94;5071574;28;20051;-73
2023/07/09 03:23:34;;;;;;;11.13;7.15;;;;;;;18.17;75.82;96755.38;5071863;28;20047;-73
2023/07/09 03:26:01;;;;;;;11.05;6.90;;;;;;;18.17;75.77;96752.59;5071809;28;20055;-73
2023/07/09 03:28:27;;;;;;;13.70;7.93;;;;;;;18.05;76.18;96755.44;5051361;28;20639;-73
2023/07/09 03:30:56;;;;;;;12.93;7.18;;;;;;;17.96;76.23;96761.94;5051434;28;20087;-73
2023/07/09 03:33:23;;;;;;;12.90;7.03;;;;;;;18.06;76.24;96762.53;5047216;28;20230;-72
2023/07/09 03:35:50;;;;;;;12.95;6.68;;;;;;;18.08;75.81;96761.03;5051879;28;20045;-73
2023/07/09 03:38:17;;;;;;;13.20;7.68;;;;;;;18.06;75.73;96765.31;5051158;28;20053;-73
2023/07/09 03:40:45;;;;;;;14.60;7.07;;;;;;;18.13;75.81;96768.25;5051432;28;20048;-73
2023/07/09 03:43:12;;;;;;;15.20;7.30;;;;;;;18.17;75.99;96774.66;5050972;28;20052;-73
2023/07/09 03:45:39;;;;;;;9.88;6.40;;;;;;;18.21;76.54;96767.25;5060920;28;20045;-73
2023/07/09 03:48:06;;;;;;;11.23;6.38;;;;;;;18.23;75.84;96774.03;5050752;28;20040;-73
2023/07/09 03:50:33;;;;;;;10.55;6.50;;;;;;;18.27;76.31;96774.13;5050974;28;20049;-73
2023/07/09 03:53:00;;;;;;;11.32;6.28;;;;;;;18.32;76.63;96771.06;5051179;28;20550;-73
2023/07/09 03:55:26;;;;;;;10.40;6.65;;;;;;;18.33;77.12;96767.16;5050658;28;20124;-73
2023/07/09 03:57:54;;;;;;;9.85;6.80;;;;;;;18.33;76.14;96772.69;5051111;28;20440;-73
2023/07/09 04:00:21;;;;;;;10.95;6.47;;;;;;;18.30;76.01;96767.88;5050974;28;20045;-73
2023/07/09 04:02:49;;;;;;;10.07;6.45;;;;;;;18.24;75.61;96774.81;5054122;28;20064;-73
2023/07/09 04:05:16;;;;;;;15.32;6.88;;;;;;;18.25;75.46;96776.41;5056265;28;20060;-73
2023/07/09 04:07:42;;;;;;;12.32;6.90;;;;;;;18.27;75.40;96776.88;5056722;28;20052;-73
2023/07/09 04:10:09;;;;;;;12.60;6.53;;;;;;;18.32;75.21;96776.56;5055663;28;20045;-73
2023/07/09 04:12:36;;;;;;;10.45;5.88;;;;;;;18.36;75.38;96777.47;5055750;28;20045;-73
2023/07/09 04:15:05;;;;;;;11.50;6.78;;;;;;;18.26;75.69;96772.50;5059604;28;20548;-74
2023/07/09 04:17:32;;;;;;;9.35;6.18;;;;;;;18.37;75.44;96773.53;5065670;28;20108;-73
2023/07/09 04:19:58;;;;;;;10.88;6.40;;;;;;;18.48;75.78;96780.13;5056738;28;20045;-73
2023/07/09 04:22:25;;;;;;;9.25;5.90;;;;;;;18.56;75.82;96778.31;5057157;28;20052;-73
2023/07/09 04:24:52;;;;;;;12.32;6.55;;;;;;;18.50;75.98;96780.56;5058109;28;20049;-74
2023/07/09 04:27:18;;;;;;;12.75;6.57;;;;;;;18.52;75.59;96780.19;5057066;28;20045;-73
2023/07/09 04:29:45;;;;;;;10.27;5.78;;;;;;;18.59;75.37;96779.56;5056403;28;20049;-73
2023/07/09 04:32:15;;;;;;;9.32;5.93;;;;;;;18.64;75.56;96782.06;5056407;28;20041;-73
2023/07/09 04:34:42;;;;;;;9.25;5.93;;;;;;;18.71;75.92;96777.50;5053854;28;20049;-73
2023/07/09 04:37:11;;;;;;;10.75;6.10;;;;;;;18.74;75.97;96781.50;5050061;28;20041;-73
2023/07/09 04:39:38;;;;;;;10.05;5.90;;;;;;;18.78;75.84;96782.38;5050787;28;20571;-73
2023/07/09 04:42:05;;;;;;;10.63;5.88;;;;;;;18.86;75.80;96783.34;5049999;28;20044;-73
2023/07/09 04:44:32;;;;;;;10.10;6.22;;;;;;;18.92;76.01;96782.69;5059988;28;20137;-73
2023/07/09 04:46:58;;;;;;;9.07;5.63;;;;;;;18.99;75.70;96782.84;5064563;28;20132;-73
2023/07/09 04:49:26;;;;;;;9.25;5.97;;;;;;;19.06;75.51;96792.44;5049999;28;20049;-73
2023/07/09 04:51:53;;;;;;;9.52;5.80;;;;;;;19.09;75.57;96784.22;5049598;28;20515;-73
2023/07/09 04:54:22;;;;;;;10.45;6.35;;;;;;;18.96;74.11;96789.09;5049803;28;20493;-73
2023/07/09 04:56:48;;;;;;;10.10;6.05;;;;;;;19.00;73.93;96794.66;5049974;28;20076;-73
2023/07/09 04:59:15;;;;;;;10.13;5.93;;;;;;;19.11;74.43;96786.63;5049913;28;20052;-73
2023/07/09 05:01:42;;;;;;;13.98;6.90;;;;;;;18.99;74.17;96782.84;5049388;28;20044;-73
2023/07/09 05:04:08;;;;;;;12.15;5.85;;;;;;;19.02;74.20;96784.88;5049223;28;20045;-73
2023/07/09 05:06:36;;;;;;;11.88;6.00;;;;;;;19.03;74.28;96786.47;5050268;28;20404;-73
2023/07/09 05:09:03;;;;;;;11.05;5.47;;;;;;;19.17;73.66;96787.94;5050285;28;20045;-73
2023/07/09 05:11:30;;;;;;;9.18;5.50;;;;;;;19.16;73.86;96792.66;5050508;28;20200;-73
2023/07/09 05:13:56;;;;;;;9.00;5.95;;;;;;;19.28;73.84;96789.75;5055298;28;20049;-73
2023/07/09 05:16:23;;;;;;;9.43;6.03;;;;;;;19.40;73.51;96797.06;5050809;28;20037;-72
2023/07/09 05:18:49;;;;;;;9.18;5.93;;;;;;;19.39;73.56;96798.25;5050458;28;20048;-73
2023/07/09 05:21:16;;;;;;;9.30;5.43;;;;;;;19.42;73.69;96800.28;5050209;28;20497;-73
2023/07/09 05:23:44;;;;;;;12.40;6.40;;;;;;;19.39;73.85;96802.97;5050709;28;20066;-74
2023/07/09 05:26:11;;;;;;;9.80;6.25;;;;;;;19.38;74.21;96810.47;5051637;28;20059;-74
2023/07/09 05:28:37;;;;;;;8.40;5.65;;;;;;;19.54;73.80;96808.41;5050400;28;20045;-73
2023/07/09 05:31:05;;;;;;;10.63;5.75;;;;;;;19.68;73.44;96812.63;5049384;28;20052;-74
2023/07/09 05:33:32;;;;;;;10.88;5.97;;;;;;;19.67;73.50;96814.59;5049223;28;20523;-73
2023/07/09 05:35:58;;;;;;;9.18;5.72;;;;;;;19.81;73.00;96816.84;5049295;28;20412;-73
2023/07/09 05:38:25;;;;;;;13.57;6.50;;;;;;;19.86;72.94;96816.53;5049105;28;20037;-73
2023/07/09 05:41:01;;;;;;;9.40;5.05;;;;;;;19.94;73.20;96814.69;5049573;28;20052;-73
2023/07/09 05:43:27;;;;;;;9.90;5.22;;;;;;;20.04;73.30;96819.59;5049327;28;20053;-73
2023/07/09 05:45:54;;;;;;;8.75;5.53;;;;;;;20.04;73.04;96820.41;5052013;28;20041;-73
2023/07/09 05:48:20;;;;;;;9.38;5.43;;;;;;;20.14;72.81;96819.00;5048877;28;20385;-73
2023/07/09 05:50:49;;;;;;;9.73;5.18;;;;;;;20.31;72.30;96823.25;5049442;28;20052;-73
2023/07/09 05:53:15;;;;;;;12.80;5.30;;;;;;;20.29;72.93;96825.56;5048829;28;20653;-73
2023/07/09 05:55:42;;;;;;;12.43;5.43;;;;;;;20.30;72.57;96832.69;5049516;28;20049;-73
2023/07/09 05:58:10;;;;;;;11.43;5.55;;;;;;;20.40;72.46;96832.06;5049099;28;20053;-74
2023/07/09 06:00:37;;;;;;;10.68;5.13;;;;;;;20.44;71.95;96824.63;5049115;28;20041;-73
2023/07/09 06:03:07;;;;;;;7.03;5.00;;;;;;;20.68;71.93;96826.22;5048680;28;20057;-73
2023/07/09 06:05:33;;;;;;;8.82;5.20;;;;;;;20.82;72.10;96820.88;5048902;28;20059;-73
2023/07/09 06:07:59;;;;;;;13.63;5.82;;;;;;;20.76;70.49;96821.59;5049505;28;20049;-73
2023/07/09 06:10:26;;;;;;;8.88;5.38;;;;;;;20.95;70.24;96829.78;5048625;28;20041;-73
2023/07/09 06:12:57;;;;;;;10.57;5.55;;;;;;;21.07;69.89;96821.25;5049275;28;20057;-74
2023/07/09 06:15:25;;;;;;;11.00;5.40;;;;;;;20.99;69.61;96830.63;5056452;28;20070;-73
2023/07/09 06:17:52;;;;;;;9.13;4.88;;;;;;;21.18;69.11;96826.13;5045859;28;20045;-73
2023/07/09 06:20:19;;;;;;;8.48;5.00;;;;;;;21.35;69.08;96833.88;5051738;28;20170;-74
2023/07/09 06:22:45;;;;;;;7.45;4.45;;;;;;;21.49;68.66;96836.84;5053169;28;20053;-74
2023/07/09 06:25:13;;;;;;;8.27;4.88;;;;;;;21.62;68.39;96835.44;5052517;28;20485;-74
2023/07/09 06:27:40;;;;;;;10.63;4.40;;;;;;;21.71;68.26;96837.88;5053091;28;20048;-73
2023/07/09 06:30:07;;;;;;;10.38;4.93;;;;;;;21.75;68.43;96840.69;5052301;28;20055;-74
2023/07/09 06:32:35;;;;;;;8.77;4.20;;;;;;;21.82;65.84;96838.00;5052771;28;20047;-74
2023/07/09 06:35:02;;;;;;;11.65;5.05;;;;;;;21.84;65.41;96838.44;5053586;28;20056;-74
2023/07/09 06:37:28;;;;;;;7.45;4.72;;;;;;;21.97;63.67;96845.28;5052125;28;20045;-74
2023/07/09 06:39:55;;;;;;;7.32;4.38;;;;;;;22.05;63.68;96835.09;5052868;28;20048;-74
2023/07/09 06:42:21;;;;;;;8.00;5.38;;;;;;;22.13;63.23;96840.34;5051646;28;20048;-74
2023/07/09 06:44:48;;;;;;;9.98;5.13;;;;;;;22.26;62.49;96842.84;5064260;28;20052;-73
2023/07/09 06:47:14;;;;;;;9.13;4.25;;;;;;;22.36;63.30;96844.91;5064445;28;20424;-74
2023/07/09 06:49:42;;;;;;;7.60;4.40;;;;;;;22.49;63.28;96837.09;5052742;28;20049;-74
2023/07/09 06:52:09;;;;;;;11.25;5.22;;;;;;;22.53;63.66;96841.47;5051872;28;20113;-74
2023/07/09 06:54:35;;;;;;;7.63;4.47;;;;;;;22.64;63.00;96847.13;5052708;28;20045;-73
2023/07/09 06:57:01;;;;;;;9.77;4.85;;;;;;;22.70;63.36;96844.78;5052034;28;20043;-75
2023/07/09 06:59:28;;;;;;;7.53;4.53;;;;;;;22.66;61.79;96842.78;5052797;28;20408;-73
2023/07/09 07:01:54;;;;;;;8.90;4.85;;;;;;;22.70;62.99;96842.00;5052492;28;20112;-74
2023/07/09 07:04:21;;;;;;;7.57;4.18;;;;;;;22.90;62.05;96835.03;5052123;28;20072;-73
2023/07/09 07:06:49;;;;;;;8.80;4.32;;;;;;;23.08;62.59;96835.16;5052336;28;20048;-74
2023/07/09 07:09:15;;;;;;;6.88;4.35;;;;;;;23.17;63.63;96827.25;5051271;28;20044;-73
2023/07/09 07:11:42;;;;;;;9.15;5.00;;;;;;;23.11;64.30;96826.03;5051904;28;20045;-73
2023/07/09 07:14:08;;;;;;;8.57;4.15;;;;;;;23.23;63.42;96836.00;5057452;28;20519;-74
2023/07/09 07:16:35;;;;;;;8.35;4.40;;;;;;;23.32;63.98;96828.13;5059977;28;20436;-73
2023/07/09 07:19:01;;;;;;;7.20;4.28;;;;;;;23.49;63.24;96833.00;5052051;28;20048;-74
2023/07/09 07:21:28;;;;;;;7.68;4.95;;;;;;;23.43;61.32;96840.88;5051465;28;20540;-74
2023/07/09 07:23:55;;;;;;;9.10;4.32;;;;;;;23.54;62.28;96829.81;5051650;28;20053;-74
2023/07/09 07:26:22;;;;;;;10.25;5.07;;;;;;;23.57;61.95;96833.81;5050740;28;20096;-74
2023/07/09 07:28:50;;;;;;;9.90;4.55;;;;;;;23.62;59.04;96834.22;5051887;28;20052;-74
2023/07/09 07:31:16;;;;;;;8.05;4.25;;;;;;;23.75;59.34;96828.31;5051666;28;20044;-74
2023/07/09 07:33:43;;;;;;;9.00;4.13;;;;;;;23.94;59.13;96827.97;5051582;28;20056;-74
2023/07/09 07:36:11;;;;;;;5.75;4.10;;;;;;;24.10;58.35;96833.19;5051014;28;20147;-74
2023/07/09 07:38:37;;;;;;;10.93;4.47;;;;;;;24.09;56.05;96831.59;5051496;28;20068;-74
2023/07/09 07:41:05;;;;;;;6.50;3.97;;;;;;;24.30;56.67;96831.63;5051359;28;20053;-74
2023/07/09 07:43:31;;;;;;;8.48;4.70;;;;;;;24.33;56.70;96824.47;5051915;28;20389;-74
2023/07/09 07:45:58;;;;;;;8.15;4.20;;;;;;;24.45;57.56;96826.88;5061806;28;20057;-74
2023/07/09 07:48:24;;;;;;;7.82;4.22;;;;;;;24.59;55.80;96820.50;5052378;28;20051;-74
2023/07/09 07:50:51;;;;;;;9.80;4.10;;;;;;;24.70;55.79;96824.91;5053002;28;20512;-74
2023/07/09 07:53:18;;;;;;;6.80;3.97;;;;;;;24.87;55.76;96837.19;5053408;28;20057;-74
2023/07/09 07:55:44;;;;;;;8.40;4.05;;;;;;;24.91;56.03;96823.28;5053988;28;20508;-74
2023/07/09 07:58:14;;;;;;;5.88;4.00;;;;;;;25.11;57.39;96835.59;5053092;28;20049;-74
2023/07/09 08:00:40;;;;;;;10.15;4.43;;;;;;;25.25;56.73;96829.97;5051707;28;20052;-74
2023/07/09 08:03:07;;;;;;;6.97;4.30;;;;;;;25.30;54.61;96825.97;5050751;28;20053;-74
2023/07/09 08:05:34;;;;;;;7.63;4.30;;;;;;;25.44;53.94;96825.16;5051737;28;20049;-74
2023/07/09 08:08:00;;;;;;;7.75;4.15;;;;;;;25.62;55.05;96817.50;5050941;28;20045;-73
2023/07/09 08:10:26;;;;;;;11.95;4.93;;;;;;;25.65;52.80;96819.47;5051067;28;20064;-74
2023/07/09 08:12:56;;;;;;;9.48;4.60;;;;;;;25.79;52.81;96829.00;5050903;28;20049;-74
2023/07/09 08:15:24;;;;;;;8.48;4.20;;;;;;;25.99;49.20;96821.69;5061535;28;20052;-74
2023/07/09 08:17:50;;;;;;;9.15;3.92;;;;;;;26.10;48.38;96821.63;5050629;28;20064;-74
2023/07/09 08:20:17;;;;;;;9.55;4.30;;;;;;;26.14;46.37;96823.19;5050168;28;20051;-74
2023/07/09 08:22:44;;;;;;;8.30;4.45;;;;;;;26.18;47.63;96823.97;5051007;28;20052;-74
2023/07/09 08:25:10;;;;;;;6.38;3.65;;;;;;;26.37;48.87;96824.66;5050194;28;20068;-74
2023/07/09 08:27:37;;;;;;;7.22;3.97;;;;;;;26.58;47.90;96818.16;5050931;28;20045;-74
2023/07/09 08:30:04;;;;;;;10.43;4.40;;;;;;;26.71;46.82;96820.00;5050242;28;20049;-74
2023/07/09 08:32:32;;;;;;;7.45;4.00;;;;;;;26.78;46.94;96811.56;5050128;28;20056;-74
2023/07/09 08:34:58;;;;;;;12.25;4.35;;;;;;;26.91;45.77;96819.44;5050208;28;20526;-74
2023/07/09 08:37:25;;;;;;;8.32;4.00;;;;;;;27.09;44.29;96808.88;5050063;28;20037;-74
2023/07/09 08:39:51;;;;;;;8.07;3.65;;;;;;;27.30;45.07;96819.84;5050708;28;20053;-74
2023/07/09 08:42:26;;;;;;;7.45;3.70;;;;;;;27.38;42.58;96817.75;5050101;28;20056;-75
2023/07/09 08:45:20;;;;;;;6.20;3.80;;;;;;;27.58;44.62;96820.72;5061528;28;20045;-74
2023/07/09 08:47:57;;;;;;;6.63;3.70;;;;;;;27.74;42.01;96815.34;5049524;28;20048;-75
2023/07/09 08:50:29;;;;;;;8.57;3.60;;;;;;;27.96;45.44;96817.84;5048857;28;20068;-74
2023/07/09 08:52:57;;;;;;;9.27;3.97;;;;;;;28.09;40.96;96821.66;5050077;28;20049;-74
2023/07/09 08:55:29;;;;;;;9.35;3.47;;;;;;;28.08;40.19;96822.84;5049639;28;20068;-74
2023/07/09 08:57:59;;;;;;;7.93;3.33;;;;;;;28.11;37.62;96808.03;5050191;28;20045;-74
2023/07/09 09:00:30;;;;;;;5.35;2.85;;;;;;;28.30;41.36;96812.94;5049463;28;20110;-74
2023/07/09 09:03:01;;;;;;;6.70;3.05;;;;;;;28.41;40.68;96806.41;5055332;28;20052;-74
2023/07/09 09:05:27;;;;;;;8.60;3.80;;;;;;;28.53;39.30;96814.22;5066324;28;20409;-75
2023/07/09 09:08:02;;;;;;;5.80;3.33;;;;;;;28.74;41.04;96807.44;5049933;28;20063;-74
2023/07/09 09:10:34;;;;;;;6.22;3.33;;;;;;;28.82;38.24;96806.91;5048593;28;20052;-74
2023/07/09 09:13:09;;;;;;;6.32;2.83;;;;;;;28.93;38.50;96811.53;5049766;28;20053;-74
2023/07/09 09:15:39;;;;;;;5.10;3.00;;;;;;;29.02;37.70;96814.56;5054818;28;20215;-75
2023/07/09 09:18:23;;;;;;;6.43;3.20;;;;;;;29.08;34.44;96815.69;5049375;28;20041;-74
2023/07/09 09:20:56;;;;;;;8.20;3.30;;;;;;;28.88;34.24;96812.03;5049498;28;20037;-73
2023/07/09 09:23:26;;;;;;;7.65;3.30;;;;;;;29.04;34.85;96810.13;5049506;28;20400;-74
2023/07/09 09:25:57;;;;;;;6.05;3.40;;;;;;;29.22;37.52;96821.00;5049985;28;20411;-74
2023/07/09 09:28:25;;;;;;;6.80;3.50;;;;;;;29.14;33.42;96819.56;5049199;28;20481;-73
2023/07/09 09:30:51;;;;;;;7.47;3.15;;;;;;;29.17;33.09;96818.69;5049615;28;20138;-76
2023/07/09 09:33:19;;;;;;;6.60;3.28;;;;;;;29.25;34.83;96819.38;5049207;28;20044;-73
2023/07/09 09:35:47;;;;;;;5.38;2.83;;;;;;;29.37;34.31;96819.50;5049665;28;20059;-73
2023/07/09 09:38:17;;;;;;;5.15;3.03;;;;;;;29.35;34.02;96821.97;5049399;28;20059;-76
2023/07/09 09:40:44;;;;;;;8.23;2.95;;;;;;;29.46;33.70;96820.97;5049556;28;20041;-75
2023/07/09 09:43:14;;;;;;;6.05;2.92;;;;;;;29.60;34.69;96815.06;5048848;28;20045;-76
2023/07/09 09:45:44;;;;;;;6.55;2.80;;;;;;;29.60;36.35;96815.06;5060195;28;20049;-75
2023/07/09 09:48:15;;;;;;;5.85;3.00;;;;;;;29.49;32.27;96817.28;5049329;28;20087;-75
2023/07/09 09:50:45;;;;;;;4.57;2.60;;;;;;;29.61;33.18;96819.47;5053692;28;20052;-75
2023/07/09 09:53:20;;;;;;;3.97;2.40;;;;;;;29.72;35.21;96814.44;5053202;28;20040;-74
2023/07/09 09:55:47;;;;;;;9.23;3.05;;;;;;;29.75;36.70;96812.75;5053174;28;20390;-76
2023/07/09 09:58:16;;;;;;;6.63;3.08;;;;;;;29.85;35.97;96812.53;5052839;28;20048;-75
2023/07/09 10:00:48;;;;;;;6.10;2.53;;;;;;;29.87;35.29;96809.31;5053646;28;20072;-74
2023/07/09 10:03:15;;;;;;;11.77;2.88;;;;;;;29.94;35.83;96811.94;5052421;28;20060;-74
2023/07/09 10:05:47;;;;;;;5.00;2.78;;;;;;;30.02;33.85;96806.97;5053393;28;20049;-74
2023/07/09 10:08:27;;;;;;;6.65;2.70;;;;;;;30.02;35.84;96804.16;5053019;28;20041;-74
2023/07/09 10:10:58;;;;;;;7.47;2.95;;;;;;;30.00;34.08;96806.59;5041439;28;20045;-74
2023/07/09 10:13:31;;;;;;;3.70;2.33;;;;;;;30.14;33.76;96803.50;5052584;28;20528;-75
2023/07/09 10:16:06;;;;;;;4.78;3.10;;;;;;;30.23;34.12;96803.72;5064282;28;20052;-74
2023/07/09 10:18:46;;;;;;;4.95;2.75;;;;;;;30.23;34.89;96800.91;5052825;28;20120;-75
2023/07/09 10:21:19;;;;;;;7.25;3.08;;;;;;;30.34;36.11;96795.03;5052624;28;20045;-75
2023/07/09 10:23:55;;;;;;;5.80;2.97;;;;;;;30.37;34.94;96792.09;5033299;28;20046;-75
2023/07/09 10:26:27;;;;;;;9.68;3.10;;;;;;;30.33;36.17;96801.84;5047281;28;20497;-75
2023/07/09 10:29:16;;;;;;;4.80;2.63;;;;;;;30.40;34.32;96791.25;5053358;28;20044;-75
2023/07/09 10:31:51;;;;;;;5.05;2.58;;;;;;;30.49;32.93;96787.00;5052619;28;20041;-76
2023/07/09 10:34:27;;;;;;;5.75;3.08;;;;;;;30.48;33.17;96797.47;5052813;28;20052;-75
2023/07/09 10:37:14;;;;;;;5.78;3.00;;;;;;;30.45;32.11;96798.38;5052707;28;20403;-75
2023/07/09 10:39:46;;;;;;;4.45;2.58;;;;;;;30.50;33.54;96799.84;5087488;28;20052;-76
2023/07/09 10:42:22;;;;;;;6.63;2.77;;;;;;;30.41;32.85;96795.63;5064060;28;20040;-76
2023/07/09 10:44:57;;;;;;;5.57;3.15;;;;;;;30.53;34.19;96790.53;5084671;28;20270;-74
2023/07/09 10:47:30;;;;;;;6.05;2.90;;;;;;;30.65;34.81;96795.47;5071276;28;20037;-76
2023/07/09 10:49:59;;;;;;;8.55;3.58;;;;;;;30.68;34.17;96794.56;5064560;28;20045;-76
2023/07/09 10:52:30;;;;;;;5.80;2.70;;;;;;;30.72;32.56;96798.13;5051044;28;20041;-75
2023/07/09 10:55:03;;;;;;;6.18;2.97;;;;;;;30.66;33.14;96797.03;5060750;28;20048;-76
2023/07/09 10:57:34;;;;;;;6.30;2.75;;;;;;;30.61;33.84;96789.13;5092063;28;20044;-76
2023/07/09 11:00:02;;;;;;;4.97;2.70;;;;;;;30.69;34.23;96790.53;5091221;28;20047;-76
2023/07/09 11:02:32;;;;;;;6.43;3.00;;;;;;;30.68;34.74;96789.72;5092116;28;20048;-76
2023/07/09 11:05:00;;;;;;;6.15;2.80;;;;;;;30.78;32.41;96796.34;5092416;28;20059;-76
2023/07/09 11:07:33;;;;;;;5.30;2.60;;;;;;;30.81;34.89;96798.28;5081162;28;20049;-76
2023/07/09 11:10:04;;;;;;;7.53;2.67;;;;;;;30.93;32.72;96794.75;5072141;28;20499;-76
2023/07/09 11:12:37;;;;;;;7.55;3.05;;;;;;;30.93;33.67;96782.72;5063685;28;20074;-75
2023/07/09 11:15:10;;;;;;;6.60;2.92;;;;;;;30.92;32.24;96787.53;5085187;28;20048;-76
2023/07/09 11:17:40;;;;;;;4.85;2.75;;;;;;;31.00;32.50;96776.09;5073003;28;20049;-75
2023/07/09 11:20:16;;;;;;;5.35;2.67;;;;;;;30.85;32.55;96781.31;5054828;28;20045;-76
2023/07/09 11:22:52;;;;;;;6.13;2.85;;;;;;;30.89;34.38;96782.78;5072011;28;20484;-76
2023/07/09 11:25:29;;;;;;;6.40;2.80;;;;;;;30.90;33.61;96784.38;5071417;28;20135;-76
2023/07/09 11:28:05;;;;;;;5.90;2.70;;;;;;;31.03;31.83;96780.84;5071644;28;20053;-76
2023/07/09 11:30:32;;;;;;;5.38;3.00;;;;;;;31.05;32.48;96784.00;5063834;28;20040;-74
2023/07/09 11:33:00;;;;;;;6.35;2.55;;;;;;;31.06;32.08;96768.69;5071349;28;20044;-74
2023/07/09 11:35:28;;;;;;;4.68;2.60;;;;;;;30.88;28.78;96783.25;5051156;28;20037;-74
2023/07/09 11:37:58;;;;;;;5.07;2.95;;;;;;;30.80;29.90;96777.03;5051626;28;20076;-74